• Join FlightAware (Why Join?)
  • Login
  • US Flag 
08:32AM EDT


 

Airport Tracker/Info


-or-


 

Live Flight TrackerFlight Track Log ✈ ADR727 ✈ 04-Dec-2013 ✈ LATI / TIA - LJLJ / LJU

Flight Track Log - Related Links

Times and Time Zones

All times are in EST time to prevent confusion due to time zone crossing. See the ADR727 flight status page for this flight to view local times or setup timezone preferences in your user account.

Time Position Orientation Groundspeed Altitude Reporting Facility
EST Latitude Longitude Course Direction KTS MPH feet Rate Location/Type
11:14PM 42.1640 18.9702 324° Northwest  Level Estimated
11:15PM 42.2469 18.8857 323° Northwest  Level Estimated
11:16PM 42.3298 18.8010 323° Northwest  Level Estimated
11:17PM 42.4127 18.7161 323° Northwest  Level Estimated
11:18PM 42.4954 18.6310 323° Northwest  Level Estimated
11:19PM 42.5781 18.5456 323° Northwest  Level Estimated
11:20PM 42.6607 18.4600 323° Northwest  Level Estimated
11:21PM 42.7433 18.3742 323° Northwest  Level Estimated
11:22PM 42.8258 18.2882 323° Northwest  Level Estimated
11:23PM 42.9082 18.2019 323° Northwest  Level Estimated
11:24PM 42.9906 18.1154 322° Northwest  Level Estimated
11:25PM 43.0729 18.0286 322° Northwest  Level Estimated
11:26PM 43.1552 17.9417 322° Northwest  Level Estimated
11:27PM 43.2374 17.8544 322° Northwest  Level Estimated
11:28PM 43.3195 17.7670 322° Northwest  Level Estimated
11:29PM 43.4015 17.6793 322° Northwest  Level Estimated
11:30PM 43.4835 17.5914 322° Northwest  Level Estimated
11:31PM 43.5654 17.5032 322° Northwest  Level Estimated
11:32PM 43.6472 17.4148 322° Northwest  Level Estimated
11:33PM 43.7290 17.3262 322° Northwest  Level Estimated
11:34PM 43.8107 17.2373 322° Northwest  Level Estimated
11:35PM 43.8924 17.1482 322° Northwest  Level Estimated
11:36PM 43.9739 17.0588 322° Northwest  Level Estimated
11:37PM 44.0554 16.9692 322° Northwest  Level Estimated
11:38PM 44.1369 16.8794 322° Northwest  Level Estimated
11:39PM 44.2182 16.7892 322° Northwest  Level Estimated
11:40PM 44.2995 16.6989 322° Northwest  Level Estimated
11:41PM 44.3807 16.6083 321° Northwest  Level Estimated
11:42PM 44.4618 16.5174 321° Northwest  Level Estimated
11:43PM 44.5429 16.4263 321° Northwest  Level Estimated
11:44PM 44.6239 16.3349 321° Northwest  Level Estimated
11:45PM 44.7048 16.2433 321° Northwest  Level Estimated
11:46PM 44.7857 16.1514 321° Northwest  Level Estimated
11:47PM 44.8665 16.0593 321° Northwest  Level Estimated
11:48PM 44.9472 15.9669 321° Northwest  Level Estimated
11:49PM 45.0278 15.8743 321° Northwest  Level Estimated
11:50PM 45.1083 15.7814 321° Northwest  Level Estimated
11:51PM 45.1888 15.6882 321° Northwest  Level Estimated
11:52PM 45.2692 15.5947 321° Northwest  Level Estimated
11:53PM 45.3495 15.5010 321° Northwest  Level Estimated
11:54PM 45.4298 15.4071 321° Northwest  Level Estimated
11:55PM 45.5100 15.3128 321° Northwest  Level Estimated
11:56PM 45.5901 15.2183 320° Northwest  Level Estimated
11:57PM 45.6701 15.1235 320° Northwest  Level Estimated
11:58PM 45.7500 15.0285 320° Northwest  Level Estimated
11:59PM 45.8299 14.9332 320° Northwest  Level Estimated
12:00AM 45.9096 14.8376 320° Northwest  Level Estimated
12:01AM 45.9893 14.7417 320° Northwest  Level Estimated
12:02AM 46.0690 14.6455 320° Northwest  Level Estimated
12:03AM 46.1485 14.5491 320° Northwest  Level Estimated
12:04AM 46.2237 14.4576 320° Northwest  Level Estimated
12:05AM 46.2237 14.4576 170° South  Level Estimated
12:06AM 46.2237 14.4576 170° South  Level Estimated
12:07AM 46.2237 14.4576 170° South  Level Estimated
12:08AM 46.2237 14.4576 170° South  Level Estimated
12:09AM 46.2237 14.4576 170° South  Level Estimated
12:10AM 46.2237 14.4576 170° South  Level Estimated
12:11AM 46.2237 14.4576 170° South  Level Estimated
12:12AM 46.2237 14.4576 170° South  Level Estimated
12:13AM 46.2237 14.4576 170° South  Level Estimated
12:14AM 46.2237 14.4576 170° South  Level Estimated
12:15AM 46.2237 14.4576 170° South  Level Estimated
12:16AM 46.2237 14.4576 170° South  Level Estimated
12:17AM 46.2237 14.4576 170° South  Level Estimated
12:18AM 46.2237 14.4576 170° South  Level Estimated
12:19AM 46.2237 14.4576 170° South  Level Estimated
12:20AM 46.2237 14.4576 170° South  Level Estimated